sensor_id;sensor_type;location;lat;lon;timestamp;pressure;altitude;pressure_sealevel;temperature;humidity
69971;BME280;57301;50.328;8.542;2023-08-06T00:00:29;97610.16;;;15.08;96.72
69971;BME280;57301;50.328;8.542;2023-08-06T00:02:55;97617.59;;;15.06;96.87
69971;BME280;57301;50.328;8.542;2023-08-06T00:05:22;97618.41;;;15.07;96.98
69971;BME280;57301;50.328;8.542;2023-08-06T00:07:49;97614.50;;;15.16;96.78
69971;BME280;57301;50.328;8.542;2023-08-06T00:10:17;97617.38;;;15.08;96.56
69971;BME280;57301;50.328;8.542;2023-08-06T00:12:44;97612.25;;;15.19;96.01
69971;BME280;57301;50.328;8.542;2023-08-06T00:15:11;97612.84;;;15.15;96.53
69971;BME280;57301;50.328;8.542;2023-08-06T00:17:37;97609.94;;;15.03;96.99
69971;BME280;57301;50.328;8.542;2023-08-06T00:20:04;97609.31;;;14.94;97.81
69971;BME280;57301;50.328;8.542;2023-08-06T00:22:34;97598.56;;;14.94;97.83
69971;BME280;57301;50.328;8.542;2023-08-06T00:25:01;97600.41;;;14.87;97.65
69971;BME280;57301;50.328;8.542;2023-08-06T00:27:27;97598.94;;;14.85;98.44
69971;BME280;57301;50.328;8.542;2023-08-06T00:29:54;97586.78;;;14.89;98.52
69971;BME280;57301;50.328;8.542;2023-08-06T00:32:20;97588.41;;;14.76;99.19
69971;BME280;57301;50.328;8.542;2023-08-06T00:34:47;97586.34;;;14.78;99.05
69971;BME280;57301;50.328;8.542;2023-08-06T00:37:17;97575.19;;;14.68;99.54
69971;BME280;57301;50.328;8.542;2023-08-06T00:39:43;97568.78;;;14.69;99.38
69971;BME280;57301;50.328;8.542;2023-08-06T00:42:10;97577.66;;;14.76;99.11
69971;BME280;57301;50.328;8.542;2023-08-06T00:44:38;97569.16;;;14.66;99.50
69971;BME280;57301;50.328;8.542;2023-08-06T00:47:08;97565.47;;;14.67;99.70
69971;BME280;57301;50.328;8.542;2023-08-06T00:49:36;97557.22;;;14.62;100.00
69971;BME280;57301;50.328;8.542;2023-08-06T00:52:04;97561.31;;;14.65;100.00
69971;BME280;57301;50.328;8.542;2023-08-06T00:54:31;97560.13;;;14.81;100.00
69971;BME280;57301;50.328;8.542;2023-08-06T00:56:58;97552.91;;;14.81;99.00
69971;BME280;57301;50.328;8.542;2023-08-06T00:59:26;97560.31;;;14.72;98.91
69971;BME280;57301;50.328;8.542;2023-08-06T01:01:53;97559.09;;;14.82;98.40
69971;BME280;57301;50.328;8.542;2023-08-06T01:04:20;97547.13;;;14.77;98.13
69971;BME280;57301;50.328;8.542;2023-08-06T01:06:48;97546.50;;;14.82;97.14
69971;BME280;57301;50.328;8.542;2023-08-06T01:12:34;97540.94;;;14.84;97.16
69971;BME280;57301;50.328;8.542;2023-08-06T01:15:12;97540.53;;;14.93;96.70
69971;BME280;57301;50.328;8.542;2023-08-06T01:17:40;97539.28;;;14.96;96.33
69971;BME280;57301;50.328;8.542;2023-08-06T01:20:07;97532.88;;;14.97;96.56
69971;BME280;57301;50.328;8.542;2023-08-06T01:22:34;97534.34;;;14.93;97.76
69971;BME280;57301;50.328;8.542;2023-08-06T01:25:00;97534.94;;;14.75;98.20
69971;BME280;57301;50.328;8.542;2023-08-06T01:27:33;97529.59;;;14.82;98.84
69971;BME280;57301;50.328;8.542;2023-08-06T01:30:17;97529.81;;;14.87;98.83
69971;BME280;57301;50.328;8.542;2023-08-06T01:32:49;97528.53;;;14.83;98.82
69971;BME280;57301;50.328;8.542;2023-08-06T01:35:18;97524.00;;;14.76;99.03
69971;BME280;57301;50.328;8.542;2023-08-06T01:37:46;97522.75;;;14.79;99.18
69971;BME280;57301;50.328;8.542;2023-08-06T01:40:13;97517.81;;;14.83;98.90
69971;BME280;57301;50.328;8.542;2023-08-06T01:42:40;97521.53;;;14.88;98.44
69971;BME280;57301;50.328;8.542;2023-08-06T01:45:07;97506.66;;;14.79;98.01
69971;BME280;57301;50.328;8.542;2023-08-06T01:47:34;97502.97;;;14.80;98.67
69971;BME280;57301;50.328;8.542;2023-08-06T01:50:01;97503.78;;;14.81;97.80
69971;BME280;57301;50.328;8.542;2023-08-06T01:52:28;97503.13;;;14.85;97.22
69971;BME280;57301;50.328;8.542;2023-08-06T01:54:55;97512.22;;;14.84;97.29
69971;BME280;57301;50.328;8.542;2023-08-06T01:57:21;97507.28;;;14.81;98.06
69971;BME280;57301;50.328;8.542;2023-08-06T01:59:48;97505.22;;;14.83;98.49
69971;BME280;57301;50.328;8.542;2023-08-06T02:02:14;97492.00;;;14.88;98.16
69971;BME280;57301;50.328;8.542;2023-08-06T02:04:41;97493.88;;;14.88;98.13
69971;BME280;57301;50.328;8.542;2023-08-06T02:07:07;97495.50;;;14.82;98.49
69971;BME280;57301;50.328;8.542;2023-08-06T02:09:34;97500.66;;;14.84;98.82
69971;BME280;57301;50.328;8.542;2023-08-06T02:12:02;97490.16;;;15.02;97.63
69971;BME280;57301;50.328;8.542;2023-08-06T02:14:29;97487.25;;;14.84;98.38
69971;BME280;57301;50.328;8.542;2023-08-06T02:16:55;97491.41;;;14.80;99.12
69971;BME280;57301;50.328;8.542;2023-08-06T02:19:22;97482.91;;;14.89;99.11
69971;BME280;57301;50.328;8.542;2023-08-06T02:21:48;97475.28;;;14.80;98.68
69971;BME280;57301;50.328;8.542;2023-08-06T02:24:14;97472.19;;;14.83;98.91
69971;BME280;57301;50.328;8.542;2023-08-06T02:26:41;97473.00;;;14.90;99.29
69971;BME280;57301;50.328;8.542;2023-08-06T02:29:07;97478.97;;;14.72;100.00
69971;BME280;57301;50.328;8.542;2023-08-06T02:31:34;97472.41;;;14.81;100.00
69971;BME280;57301;50.328;8.542;2023-08-06T02:34:00;97463.91;;;14.91;99.99
69971;BME280;57301;50.328;8.542;2023-08-06T02:36:27;97461.88;;;14.93;100.00
69971;BME280;57301;50.328;8.542;2023-08-06T02:38:55;97469.50;;;14.83;100.00
69971;BME280;57301;50.328;8.542;2023-08-06T02:41:22;97458.75;;;14.76;100.00
69971;BME280;57301;50.328;8.542;2023-08-06T02:43:48;97453.41;;;14.76;100.00
69971;BME280;57301;50.328;8.542;2023-08-06T02:46:18;97456.47;;;14.66;100.00
69971;BME280;57301;50.328;8.542;2023-08-06T02:48:44;97448.63;;;14.78;100.00
69971;BME280;57301;50.328;8.542;2023-08-06T02:51:11;97449.88;;;14.69;100.00
69971;BME280;57301;50.328;8.542;2023-08-06T02:53:37;97444.09;;;14.78;100.00
69971;BME280;57301;50.328;8.542;2023-08-06T02:56:04;97444.09;;;14.78;100.00
69971;BME280;57301;50.328;8.542;2023-08-06T02:58:30;97444.31;;;14.64;100.00
69971;BME280;57301;50.328;8.542;2023-08-06T03:01:04;97441.00;;;14.62;100.00
69971;BME280;57301;50.328;8.542;2023-08-06T03:03:32;97423.88;;;14.76;100.00
69971;BME280;57301;50.328;8.542;2023-08-06T03:05:59;97417.88;;;14.61;100.00
69971;BME280;57301;50.328;8.542;2023-08-06T03:08:26;97428.63;;;14.67;100.00
69971;BME280;57301;50.328;8.542;2023-08-06T03:10:52;97427.16;;;14.71;100.00
69971;BME280;57301;50.328;8.542;2023-08-06T03:13:19;97429.84;;;14.65;100.00
69971;BME280;57301;50.328;8.542;2023-08-06T03:15:56;97426.34;;;14.58;100.00
69971;BME280;57301;50.328;8.542;2023-08-06T03:18:23;97422.41;;;14.60;100.00
69971;BME280;57301;50.328;8.542;2023-08-06T03:20:49;97416.84;;;14.55;100.00
69971;BME280;57301;50.328;8.542;2023-08-06T03:23:16;97421.59;;;14.60;100.00
69971;BME280;57301;50.328;8.542;2023-08-06T03:25:43;97412.72;;;14.66;100.00
69971;BME280;57301;50.328;8.542;2023-08-06T03:28:10;97406.94;;;14.62;100.00
69971;BME280;57301;50.328;8.542;2023-08-06T03:30:36;97412.09;;;14.57;100.00
69971;BME280;57301;50.328;8.542;2023-08-06T03:33:03;97403.44;;;14.68;100.00
69971;BME280;57301;50.328;8.542;2023-08-06T03:35:29;97410.66;;;14.61;100.00
69971;BME280;57301;50.328;8.542;2023-08-06T03:37:56;97406.75;;;14.64;100.00
69971;BME280;57301;50.328;8.542;2023-08-06T03:40:23;97395.78;;;14.78;99.95
69971;BME280;57301;50.328;8.542;2023-08-06T03:42:49;97405.91;;;14.90;98.83
69971;BME280;57301;50.328;8.542;2023-08-06T03:45:16;97400.31;;;14.91;98.34
69971;BME280;57301;50.328;8.542;2023-08-06T03:47:42;97401.97;;;14.79;98.69
69971;BME280;57301;50.328;8.542;2023-08-06T03:50:09;97396.00;;;14.70;98.10
69971;BME280;57301;50.328;8.542;2023-08-06T03:52:35;97402.41;;;14.83;97.92
69971;BME280;57301;50.328;8.542;2023-08-06T03:55:02;97398.88;;;14.82;96.36
69971;BME280;57301;50.328;8.542;2023-08-06T03:57:28;97392.25;;;14.85;96.26
69971;BME280;57301;50.328;8.542;2023-08-06T03:59:55;97388.97;;;14.83;96.54
69971;BME280;57301;50.328;8.542;2023-08-06T04:02:21;97386.72;;;14.80;96.06
69971;BME280;57301;50.328;8.542;2023-08-06T04:04:48;97386.91;;;14.71;95.68
69971;BME280;57301;50.328;8.542;2023-08-06T04:07:15;97386.91;;;14.71;96.04
69971;BME280;57301;50.328;8.542;2023-08-06T04:09:58;97384.66;;;14.68;96.78
69971;BME280;57301;50.328;8.542;2023-08-06T04:12:26;97391.44;;;14.77;96.32
69971;BME280;57301;50.328;8.542;2023-08-06T04:14:53;97376.59;;;14.75;96.42
69971;BME280;57301;50.328;8.542;2023-08-06T04:17:21;97380.31;;;14.67;97.51
69971;BME280;57301;50.328;8.542;2023-08-06T04:19:50;97384.44;;;14.57;97.71
69971;BME280;57301;50.328;8.542;2023-08-06T04:22:17;97384.03;;;14.66;97.06
69971;BME280;57301;50.328;8.542;2023-08-06T04:24:43;97380.13;;;14.75;97.10
69971;BME280;57301;50.328;8.542;2023-08-06T04:27:11;97379.91;;;14.57;97.25
69971;BME280;57301;50.328;8.542;2023-08-06T04:29:39;97374.53;;;14.70;96.20
69971;BME280;57301;50.328;8.542;2023-08-06T04:32:07;97374.13;;;14.73;95.69
69971;BME280;57301;50.328;8.542;2023-08-06T04:34:35;97371.25;;;14.75;95.77
69971;BME280;57301;50.328;8.542;2023-08-06T04:37:03;97372.03;;;14.89;94.68
69971;BME280;57301;50.328;8.542;2023-08-06T04:39:29;97362.91;;;15.03;94.52
69971;BME280;57301;50.328;8.542;2023-08-06T04:41:56;97364.41;;;14.99;93.96
69971;BME280;57301;50.328;8.542;2023-08-06T04:44:25;97363.94;;;15.09;93.57
69971;BME280;57301;50.328;8.542;2023-08-06T04:46:52;97371.78;;;15.17;92.94
69971;BME280;57301;50.328;8.542;2023-08-06T04:49:22;97363.31;;;15.20;92.60
69971;BME280;57301;50.328;8.542;2023-08-06T04:51:49;97365.81;;;15.01;92.66
69971;BME280;57301;50.328;8.542;2023-08-06T04:54:15;97358.97;;;15.19;92.51
69971;BME280;57301;50.328;8.542;2023-08-06T04:56:45;97361.66;;;15.19;92.96
69971;BME280;57301;50.328;8.542;2023-08-06T04:59:11;97362.09;;;14.96;91.99
69971;BME280;57301;50.328;8.542;2023-08-06T05:01:38;97360.00;;;15.18;90.58
69971;BME280;57301;50.328;8.542;2023-08-06T05:04:04;97358.28;;;15.37;90.15
69971;BME280;57301;50.328;8.542;2023-08-06T05:06:31;97357.84;;;15.46;88.78
69971;BME280;57301;50.328;8.542;2023-08-06T05:08:57;97354.19;;;15.27;87.10
69971;BME280;57301;50.328;8.542;2023-08-06T05:11:24;97358.06;;;15.38;87.12
69971;BME280;57301;50.328;8.542;2023-08-06T05:13:51;97358.69;;;15.40;87.45
69971;BME280;57301;50.328;8.542;2023-08-06T05:16:17;97360.53;;;15.46;88.63
69971;BME280;57301;50.328;8.542;2023-08-06T05:18:44;97360.53;;;15.53;87.75
69971;BME280;57301;50.328;8.542;2023-08-06T05:21:10;97364.44;;;15.50;87.64
69971;BME280;57301;50.328;8.542;2023-08-06T05:23:37;97361.41;;;15.33;88.36
69971;BME280;57301;50.328;8.542;2023-08-06T05:26:03;97354.63;;;15.24;89.83
69971;BME280;57301;50.328;8.542;2023-08-06T05:28:30;97374.25;;;15.18;91.45
69971;BME280;57301;50.328;8.542;2023-08-06T05:30:56;97374.66;;;15.28;91.58
69971;BME280;57301;50.328;8.542;2023-08-06T05:33:22;97366.59;;;15.22;93.14
69971;BME280;57301;50.328;8.542;2023-08-06T05:35:49;97364.97;;;15.08;92.95
69971;BME280;57301;50.328;8.542;2023-08-06T05:38:16;97374.00;;;15.33;92.51
69971;BME280;57301;50.328;8.542;2023-08-06T05:40:43;97378.50;;;15.46;91.55
69971;BME280;57301;50.328;8.542;2023-08-06T05:43:10;97376.84;;;15.45;91.45
69971;BME280;57301;50.328;8.542;2023-08-06T05:45:36;97373.81;;;15.28;89.60
69971;BME280;57301;50.328;8.542;2023-08-06T05:48:03;97373.53;;;15.49;90.19
69971;BME280;57301;50.328;8.542;2023-08-06T05:50:29;97381.81;;;15.48;89.17
69971;BME280;57301;50.328;8.542;2023-08-06T05:52:56;97378.47;;;15.59;89.12
69971;BME280;57301;50.328;8.542;2023-08-06T05:55:26;97376.22;;;15.63;89.81
69971;BME280;57301;50.328;8.542;2023-08-06T05:57:53;97381.16;;;15.59;88.82
69971;BME280;57301;50.328;8.542;2023-08-06T06:00:21;97383.84;;;15.52;89.71
69971;BME280;57301;50.328;8.542;2023-08-06T06:02:47;97380.78;;;15.49;89.28
69971;BME280;57301;50.328;8.542;2023-08-06T06:05:14;97378.28;;;15.54;89.21
69971;BME280;57301;50.328;8.542;2023-08-06T06:07:41;97375.56;;;15.61;89.35
69971;BME280;57301;50.328;8.542;2023-08-06T06:10:07;97376.13;;;15.76;89.59
69971;BME280;57301;50.328;8.542;2023-08-06T06:12:34;97375.38;;;15.55;89.38
69971;BME280;57301;50.328;8.542;2023-08-06T06:15:00;97377.06;;;15.50;92.26
69971;BME280;57301;50.328;8.542;2023-08-06T06:17:27;97374.78;;;15.40;92.21
69971;BME280;57301;50.328;8.542;2023-08-06T06:19:54;97383.13;;;15.19;93.44
69971;BME280;57301;50.328;8.542;2023-08-06T06:22:20;97382.28;;;15.25;94.71
69971;BME280;57301;50.328;8.542;2023-08-06T06:24:47;97385.22;;;15.17;94.04
69971;BME280;57301;50.328;8.542;2023-08-06T06:27:13;97385.63;;;15.14;95.62
69971;BME280;57301;50.328;8.542;2023-08-06T06:29:39;97378.16;;;15.29;95.17
69971;BME280;57301;50.328;8.542;2023-08-06T06:32:06;97391.97;;;15.32;94.58
69971;BME280;57301;50.328;8.542;2023-08-06T06:34:33;97381.25;;;15.32;95.45
69971;BME280;57301;50.328;8.542;2023-08-06T06:36:59;97383.84;;;15.52;95.15
69971;BME280;57301;50.328;8.542;2023-08-06T06:39:26;97377.22;;;15.62;95.14
69971;BME280;57301;50.328;8.542;2023-08-06T06:41:52;97373.88;;;15.79;93.62
69971;BME280;57301;50.328;8.542;2023-08-06T06:44:19;97384.31;;;15.94;92.32
69971;BME280;57301;50.328;8.542;2023-08-06T06:46:47;97381.28;;;15.84;92.77
69971;BME280;57301;50.328;8.542;2023-08-06T06:49:13;97378.19;;;15.80;92.72
69971;BME280;57301;50.328;8.542;2023-08-06T06:51:40;97375.28;;;15.82;92.31
69971;BME280;57301;50.328;8.542;2023-08-06T06:54:06;97373.47;;;16.07;90.26
69971;BME280;57301;50.328;8.542;2023-08-06T06:56:33;97375.63;;;16.30;89.78
69971;BME280;57301;50.328;8.542;2023-08-06T06:58:59;97377.19;;;16.13;90.90
69971;BME280;57301;50.328;8.542;2023-08-06T07:01:25;97371.38;;;16.16;90.73
69971;BME280;57301;50.328;8.542;2023-08-06T07:03:52;97370.78;;;16.07;91.37
69971;BME280;57301;50.328;8.542;2023-08-06T07:06:18;97373.84;;;16.18;91.81
69971;BME280;57301;50.328;8.542;2023-08-06T07:08:45;97381.06;;;15.85;92.07
69971;BME280;57301;50.328;8.542;2023-08-06T07:11:12;97378.38;;;15.85;92.79
69971;BME280;57301;50.328;8.542;2023-08-06T07:13:38;97373.88;;;15.79;93.81
69971;BME280;57301;50.328;8.542;2023-08-06T07:16:05;97375.00;;;15.45;94.57
69971;BME280;57301;50.328;8.542;2023-08-06T07:18:33;97377.06;;;15.50;95.03
69971;BME280;57301;50.328;8.542;2023-08-06T07:20:59;97379.53;;;15.45;95.24
69971;BME280;57301;50.328;8.542;2023-08-06T07:23:26;97380.16;;;15.40;96.06
69971;BME280;57301;50.328;8.542;2023-08-06T07:25:53;97375.38;;;15.55;96.68
69971;BME280;57301;50.328;8.542;2023-08-06T07:28:19;97377.66;;;15.52;96.07
69971;BME280;57301;50.328;8.542;2023-08-06T07:30:46;97381.88;;;15.35;96.70
69971;BME280;57301;50.328;8.542;2023-08-06T07:33:13;97376.47;;;15.41;96.33
69971;BME280;57301;50.328;8.542;2023-08-06T07:35:39;97381.56;;;15.63;94.88
69971;BME280;57301;50.328;8.542;2023-08-06T07:38:06;97378.34;;;15.41;95.85
69971;BME280;57301;50.328;8.542;2023-08-06T07:40:35;97383.63;;;15.61;95.68
69971;BME280;57301;50.328;8.542;2023-08-06T07:43:03;97386.72;;;15.64;95.23
69971;BME280;57301;50.328;8.542;2023-08-06T07:45:34;97383.84;;;15.59;94.93
69971;BME280;57301;50.328;8.542;2023-08-06T07:48:02;97378.25;;;15.67;95.23
69971;BME280;57301;50.328;8.542;2023-08-06T07:50:28;97387.56;;;15.51;96.44
69971;BME280;57301;50.328;8.542;2023-08-06T07:52:55;97378.47;;;15.66;96.16
69971;BME280;57301;50.328;8.542;2023-08-06T07:55:22;97382.81;;;15.60;96.08
69971;BME280;57301;50.328;8.542;2023-08-06T07:57:48;97374.97;;;15.65;97.07
69971;BME280;57301;50.328;8.542;2023-08-06T08:00:15;97379.84;;;15.17;95.67
69971;BME280;57301;50.328;8.542;2023-08-06T08:02:41;97378.00;;;15.11;96.84
69971;BME280;57301;50.328;8.542;2023-08-06T08:05:08;97378.97;;;15.36;96.65
69971;BME280;57301;50.328;8.542;2023-08-06T08:07:34;97383.00;;;15.58;95.81
69971;BME280;57301;50.328;8.542;2023-08-06T08:10:01;97380.56;;;15.50;96.39
69971;BME280;57301;50.328;8.542;2023-08-06T08:12:27;97376.81;;;15.65;96.25
69971;BME280;57301;50.328;8.542;2023-08-06T08:14:54;97374.16;;;16.03;94.27
69971;BME280;57301;50.328;8.542;2023-08-06T08:17:20;97376.03;;;16.34;92.93
69971;BME280;57301;50.328;8.542;2023-08-06T08:19:47;97376.28;;;16.51;92.07
69971;BME280;57301;50.328;8.542;2023-08-06T08:22:13;97366.75;;;16.55;90.45
69971;BME280;57301;50.328;8.542;2023-08-06T08:24:39;97375.63;;;17.05;87.65
69971;BME280;57301;50.328;8.542;2023-08-06T08:27:06;97367.66;;;17.35;86.83
69971;BME280;57301;50.328;8.542;2023-08-06T08:29:32;97366.50;;;16.88;85.26
69971;BME280;57301;50.328;8.542;2023-08-06T08:31:59;97367.97;;;17.27;81.84
69971;BME280;57301;50.328;8.542;2023-08-06T08:34:25;97369.69;;;17.40;81.38
69971;BME280;57301;50.328;8.542;2023-08-06T08:36:52;97367.06;;;17.70;81.49
69971;BME280;57301;50.328;8.542;2023-08-06T08:39:18;97371.56;;;18.36;80.10
69971;BME280;57301;50.328;8.542;2023-08-06T08:41:45;97370.38;;;18.74;76.53
69971;BME280;57301;50.328;8.542;2023-08-06T08:44:15;97367.06;;;19.19;75.45
69971;BME280;57301;50.328;8.542;2023-08-06T08:46:43;97372.47;;;19.42;76.61
69971;BME280;57301;50.328;8.542;2023-08-06T08:49:10;97365.06;;;19.38;76.64
69971;BME280;57301;50.328;8.542;2023-08-06T08:51:37;97366.63;;;19.22;73.69
69971;BME280;57301;50.328;8.542;2023-08-06T08:54:04;97364.59;;;18.70;75.04
69971;BME280;57301;50.328;8.542;2023-08-06T08:56:32;97361.97;;;17.62;76.01
69971;BME280;57301;50.328;8.542;2023-08-06T08:58:58;97365.47;;;18.52;75.10
69971;BME280;57301;50.328;8.542;2023-08-06T09:01:26;97362.13;;;18.69;74.62
69971;BME280;57301;50.328;8.542;2023-08-06T09:03:53;97364.88;;;18.09;73.65
69971;BME280;57301;50.328;8.542;2023-08-06T09:06:21;97367.66;;;18.32;75.19
69971;BME280;57301;50.328;8.542;2023-08-06T09:08:56;97361.31;;;18.26;74.76
69971;BME280;57301;50.328;8.542;2023-08-06T09:11:23;97361.50;;;19.49;70.49
69971;BME280;57301;50.328;8.542;2023-08-06T09:13:49;97362.13;;;19.91;70.89
69971;BME280;57301;50.328;8.542;2023-08-06T09:16:16;97362.34;;;20.18;68.09
69971;BME280;57301;50.328;8.542;2023-08-06T09:18:43;97362.69;;;19.93;65.92
69971;BME280;57301;50.328;8.542;2023-08-06T09:21:13;97359.09;;;21.17;66.40
69971;BME280;57301;50.328;8.542;2023-08-06T09:23:41;97352.66;;;22.06;62.55
69971;BME280;57301;50.328;8.542;2023-08-06T09:26:11;97350.03;;;21.45;61.05
69971;BME280;57301;50.328;8.542;2023-08-06T09:28:42;97353.50;;;21.24;65.89
69971;BME280;57301;50.328;8.542;2023-08-06T09:31:09;97353.75;;;21.22;63.96
69971;BME280;57301;50.328;8.542;2023-08-06T09:33:37;97356.19;;;20.68;63.80
69971;BME280;57301;50.328;8.542;2023-08-06T09:36:08;97356.47;;;19.93;65.65
69971;BME280;57301;50.328;8.542;2023-08-06T09:38:40;97367.50;;;19.39;68.66
69971;BME280;57301;50.328;8.542;2023-08-06T09:41:07;97371.97;;;19.45;69.55
69971;BME280;57301;50.328;8.542;2023-08-06T09:43:41;97364.63;;;20.38;66.59
69971;BME280;57301;50.328;8.542;2023-08-06T09:46:14;97368.00;;;19.88;65.92
69971;BME280;57301;50.328;8.542;2023-08-06T09:48:46;97369.84;;;19.71;65.80
69971;BME280;57301;50.328;8.542;2023-08-06T09:51:13;97365.13;;;19.54;66.94
69971;BME280;57301;50.328;8.542;2023-08-06T09:53:40;97375.16;;;19.42;65.33
69971;BME280;57301;50.328;8.542;2023-08-06T09:56:07;97368.22;;;19.58;66.54
69971;BME280;57301;50.328;8.542;2023-08-06T09:58:36;97360.19;;;19.51;66.44
69971;BME280;57301;50.328;8.542;2023-08-06T10:01:03;97360.56;;;20.24;66.92
69971;BME280;57301;50.328;8.542;2023-08-06T10:03:30;97358.22;;;20.44;63.83
69971;BME280;57301;50.328;8.542;2023-08-06T10:05:58;97353.91;;;20.15;63.72
69971;BME280;57301;50.328;8.542;2023-08-06T10:08:25;97345.25;;;20.97;64.17
69971;BME280;57301;50.328;8.542;2023-08-06T10:10:51;97340.09;;;21.51;62.14
69971;BME280;57301;50.328;8.542;2023-08-06T10:13:21;97334.97;;;21.32;62.81
69971;BME280;57301;50.328;8.542;2023-08-06T10:15:49;97339.25;;;21.50;61.07
69971;BME280;57301;50.328;8.542;2023-08-06T10:18:16;97339.75;;;20.91;62.76
69971;BME280;57301;50.328;8.542;2023-08-06T10:20:47;97330.44;;;21.38;60.55
69971;BME280;57301;50.328;8.542;2023-08-06T10:23:14;97345.94;;;21.64;60.37
69971;BME280;57301;50.328;8.542;2023-08-06T10:25:41;97343.09;;;21.98;60.78
69971;BME280;57301;50.328;8.542;2023-08-06T10:28:12;97334.47;;;22.06;61.67
69971;BME280;57301;50.328;8.542;2023-08-06T10:30:45;97339.97;;;22.70;59.21
69971;BME280;57301;50.328;8.542;2023-08-06T10:33:12;97333.47;;;22.12;57.04
69971;BME280;57301;50.328;8.542;2023-08-06T10:35:48;97339.06;;;22.27;56.75
69971;BME280;57301;50.328;8.542;2023-08-06T10:38:22;97337.03;;;21.47;58.16
69971;BME280;57301;50.328;8.542;2023-08-06T10:43:37;97338.84;;;21.03;60.51
69971;BME280;57301;50.328;8.542;2023-08-06T10:46:20;97341.38;;;21.48;59.30
69971;BME280;57301;50.328;8.542;2023-08-06T10:48:47;97337.31;;;22.43;56.94
69971;BME280;57301;50.328;8.542;2023-08-06T10:51:14;97331.13;;;22.21;56.41
69971;BME280;57301;50.328;8.542;2023-08-06T10:53:42;97339.66;;;22.08;57.68
69971;BME280;57301;50.328;8.542;2023-08-06T10:56:16;97338.72;;;22.51;56.71
69971;BME280;57301;50.328;8.542;2023-08-06T10:58:47;97332.81;;;21.78;58.83
69971;BME280;57301;50.328;8.542;2023-08-06T11:01:14;97334.84;;;21.44;59.69
69971;BME280;57301;50.328;8.542;2023-08-06T11:03:42;97341.63;;;21.25;60.17
69971;BME280;57301;50.328;8.542;2023-08-06T11:06:10;97330.91;;;21.79;59.18
69971;BME280;57301;50.328;8.542;2023-08-06T11:08:38;97345.00;;;21.76;57.31
69971;BME280;57301;50.328;8.542;2023-08-06T11:11:13;97341.69;;;21.95;58.04
69971;BME280;57301;50.328;8.542;2023-08-06T11:13:40;97345.19;;;21.69;58.22
69971;BME280;57301;50.328;8.542;2023-08-06T11:16:07;97334.94;;;22.52;56.59
69971;BME280;57301;50.328;8.542;2023-08-06T11:18:34;97337.63;;;21.49;60.19
69971;BME280;57301;50.328;8.542;2023-08-06T11:21:02;97335.22;;;21.53;60.20
69971;BME280;57301;50.328;8.542;2023-08-06T11:23:28;97338.31;;;21.23;62.53
69971;BME280;57301;50.328;8.542;2023-08-06T11:25:58;97336.31;;;20.96;61.98
69971;BME280;57301;50.328;8.542;2023-08-06T11:28:25;97338.03;;;20.85;62.88
69971;BME280;57301;50.328;8.542;2023-08-06T11:30:52;97347.16;;;20.79;63.79
69971;BME280;57301;50.328;8.542;2023-08-06T11:33:22;97350.53;;;20.86;63.17
69971;BME280;57301;50.328;8.542;2023-08-06T11:35:55;97368.88;;;20.34;63.49
69971;BME280;57301;50.328;8.542;2023-08-06T11:38:25;97379.38;;;19.38;66.15
69971;BME280;57301;50.328;8.542;2023-08-06T11:40:53;97386.88;;;18.54;72.09
69971;BME280;57301;50.328;8.542;2023-08-06T11:43:20;97403.69;;;17.78;78.66
69971;BME280;57301;50.328;8.542;2023-08-06T11:45:51;97412.94;;;16.83;82.93
69971;BME280;57301;50.328;8.542;2023-08-06T11:48:20;97418.03;;;16.35;87.28
69971;BME280;57301;50.328;8.542;2023-08-06T11:50:46;97424.50;;;16.27;89.54
69971;BME280;57301;50.328;8.542;2023-08-06T11:53:14;97426.31;;;16.65;87.77
69971;BME280;57301;50.328;8.542;2023-08-06T11:55:41;97421.22;;;16.19;89.65
69971;BME280;57301;50.328;8.542;2023-08-06T11:58:10;97427.28;;;16.07;91.74
69971;BME280;57301;50.328;8.542;2023-08-06T12:00:42;97435.75;;;16.11;91.61
69971;BME280;57301;50.328;8.542;2023-08-06T12:03:09;97445.56;;;15.92;92.04
69971;BME280;57301;50.328;8.542;2023-08-06T12:05:37;97444.63;;;15.67;90.23
69971;BME280;57301;50.328;8.542;2023-08-06T12:08:05;97442.97;;;15.59;90.77
69971;BME280;57301;50.328;8.542;2023-08-06T12:10:32;97466.56;;;15.44;91.38
69971;BME280;57301;50.328;8.542;2023-08-06T12:12:59;97458.25;;;15.52;91.05
69971;BME280;57301;50.328;8.542;2023-08-06T12:15:26;97460.19;;;15.31;91.90
69971;BME280;57301;50.328;8.542;2023-08-06T12:17:52;97468.88;;;15.07;92.06
69971;BME280;57301;50.328;8.542;2023-08-06T12:20:19;97470.53;;;15.01;91.15
69971;BME280;57301;50.328;8.542;2023-08-06T12:22:46;97480.44;;;14.81;91.30
69971;BME280;57301;50.328;8.542;2023-08-06T12:25:13;97479.19;;;14.70;93.66
69971;BME280;57301;50.328;8.542;2023-08-06T12:27:41;97470.50;;;14.55;92.40
69971;BME280;57301;50.328;8.542;2023-08-06T12:30:09;97477.72;;;14.55;91.92
69971;BME280;57301;50.328;8.542;2023-08-06T12:32:36;97494.69;;;14.68;91.33
69971;BME280;57301;50.328;8.542;2023-08-06T12:35:03;97495.28;;;14.64;90.55
69971;BME280;57301;50.328;8.542;2023-08-06T12:37:31;97505.59;;;14.67;91.52
69971;BME280;57301;50.328;8.542;2023-08-06T12:39:57;97502.22;;;14.45;91.88
69971;BME280;57301;50.328;8.542;2023-08-06T12:42:24;97510.34;;;14.58;91.36
69971;BME280;57301;50.328;8.542;2023-08-06T12:44:51;97505.66;;;14.12;92.13
69971;BME280;57301;50.328;8.542;2023-08-06T12:47:18;97515.91;;;14.02;92.55
69971;BME280;57301;50.328;8.542;2023-08-06T12:49:44;97511.00;;;14.12;92.66
69971;BME280;57301;50.328;8.542;2023-08-06T12:52:11;97506.84;;;14.03;92.75
69971;BME280;57301;50.328;8.542;2023-08-06T12:54:39;97516.81;;;14.22;92.94
69971;BME280;57301;50.328;8.542;2023-08-06T12:57:06;97517.59;;;14.16;92.67
69971;BME280;57301;50.328;8.542;2023-08-06T12:59:33;97515.59;;;14.32;93.30
69971;BME280;57301;50.328;8.542;2023-08-06T13:02:00;97538.09;;;14.31;92.98
69971;BME280;57301;50.328;8.542;2023-08-06T13:04:27;97534.91;;;14.07;92.84
69971;BME280;57301;50.328;8.542;2023-08-06T13:06:54;97537.63;;;14.20;93.49